createdAt,value
2018-04-05T00:00:15.392Z,7.20
2018-04-05T00:01:15.409Z,9.10
2018-04-05T00:02:15.428Z,6.60
2018-04-05T00:03:15.447Z,7.30
2018-04-05T00:04:15.466Z,7.60
2018-04-05T00:05:15.485Z,7.20
2018-04-05T00:06:15.508Z,8.20
2018-04-05T00:07:15.524Z,7.60
2018-04-05T00:08:15.544Z,6.90
2018-04-05T00:09:15.566Z,6.80
2018-04-05T00:10:15.584Z,6.80
2018-04-05T00:11:15.602Z,6.50
2018-04-05T00:12:15.622Z,6.10
2018-04-05T00:13:15.642Z,10.00
2018-04-05T00:14:15.668Z,7.80
2018-04-05T00:15:15.680Z,6.30
2018-04-05T00:16:15.700Z,7.40
2018-04-05T00:17:15.721Z,5.60
2018-04-05T00:18:15.740Z,6.50
2018-04-05T00:19:15.759Z,6.20
2018-04-05T00:20:15.779Z,5.70
2018-04-05T00:21:15.798Z,5.50
2018-04-05T00:22:15.818Z,4.30
2018-04-05T00:23:15.837Z,5.60
2018-04-05T00:24:15.857Z,4.70
2018-04-05T00:25:15.876Z,4.50
2018-04-05T00:26:15.896Z,5.10
2018-04-05T00:27:15.915Z,4.60
2018-04-05T00:28:15.934Z,4.20
2018-04-05T00:29:15.954Z,4.90
2018-04-05T00:30:15.979Z,4.90
2018-04-05T00:31:15.993Z,4.60
2018-04-05T00:32:16.013Z,4.80
2018-04-05T00:33:16.037Z,4.30
2018-04-05T00:34:16.053Z,4.00
2018-04-05T00:35:16.071Z,5.40
2018-04-05T00:36:16.090Z,7.30
2018-04-05T00:37:16.112Z,6.10
2018-04-05T00:38:16.129Z,6.40
2018-04-05T00:39:16.148Z,5.40
2018-04-05T00:40:16.168Z,6.10
2018-04-05T00:41:16.188Z,5.40
2018-04-05T00:42:16.208Z,7.60
2018-04-05T00:43:16.227Z,5.30
2018-04-05T00:44:16.246Z,6.00
2018-04-05T00:45:16.270Z,6.50
2018-04-05T00:46:16.286Z,5.60
2018-04-05T00:47:16.304Z,7.80
2018-04-05T00:48:16.323Z,8.70
2018-04-05T00:49:16.343Z,5.60
2018-04-05T00:50:16.363Z,6.80
2018-04-05T00:51:16.382Z,5.80
2018-04-05T00:52:16.402Z,5.40
2018-04-05T00:53:16.423Z,6.30
2018-04-05T00:54:16.441Z,5.40
2018-04-05T00:55:16.460Z,6.70
2018-04-05T00:56:16.479Z,6.20
2018-04-05T00:57:16.499Z,6.00
2018-04-05T00:58:16.518Z,6.30
2018-04-05T00:59:16.537Z,6.20
2018-04-05T01:00:16.556Z,7.10
2018-04-05T01:01:16.576Z,6.20
2018-04-05T01:02:16.596Z,6.10
2018-04-05T01:03:16.614Z,7.00
2018-04-05T01:04:16.634Z,5.70
2018-04-05T01:05:16.658Z,6.00
2018-04-05T01:06:16.673Z,5.70
2018-04-05T01:07:16.693Z,7.70
2018-04-05T01:08:16.718Z,6.80
2018-04-05T01:09:16.729Z,5.30
2018-04-05T01:10:16.751Z,5.00
2018-04-05T01:11:16.768Z,5.50
2018-04-05T01:12:16.788Z,6.30
2018-04-05T01:13:16.809Z,5.80
2018-04-05T01:14:16.827Z,5.80
2018-04-05T01:15:16.845Z,6.00
2018-04-05T01:16:16.871Z,5.70
2018-04-05T01:17:16.888Z,5.70
2018-04-05T01:18:16.903Z,7.60
2018-04-05T01:19:16.924Z,6.70
2018-04-05T01:20:16.942Z,7.60
2018-04-05T01:21:16.960Z,6.20
2018-04-05T01:22:16.980Z,5.80
2018-04-05T01:23:16.998Z,6.80
2018-04-05T01:24:17.018Z,7.00
2018-04-05T01:25:17.039Z,6.50
2018-04-05T01:26:17.056Z,6.40
2018-04-05T01:27:17.075Z,7.30
2018-04-05T01:28:17.095Z,8.90
2018-04-05T01:29:17.113Z,7.40
2018-04-05T01:30:17.132Z,7.00
2018-04-05T01:31:17.151Z,7.60
2018-04-05T01:32:17.171Z,7.20
2018-04-05T01:33:17.190Z,8.40
2018-04-05T01:34:17.210Z,8.60
2018-04-05T01:35:17.229Z,7.80
2018-04-05T01:36:17.252Z,7.50
2018-04-05T01:37:17.266Z,8.00
2018-04-05T01:38:17.285Z,9.20
2018-04-05T01:39:17.303Z,8.80
2018-04-05T01:40:17.363Z,9.00
2018-04-05T01:41:17.343Z,9.60
2018-04-05T01:42:17.400Z,10.00
2018-04-05T01:43:17.380Z,9.60
2018-04-05T01:44:17.399Z,9.40
2018-04-05T01:45:17.417Z,9.50
2018-04-05T01:46:17.437Z,9.90
2018-04-05T01:47:17.455Z,9.40
2018-04-05T01:48:17.475Z,10.00
2018-04-05T01:49:17.494Z,10.00
2018-04-05T01:50:17.514Z,9.70
2018-04-05T01:51:17.530Z,9.60
2018-04-05T01:52:17.550Z,10.40
2018-04-05T01:53:17.570Z,10.40
2018-04-05T01:54:17.589Z,10.80
2018-04-05T01:55:17.608Z,10.40
2018-04-05T01:56:17.632Z,10.10
2018-04-05T01:57:17.646Z,10.30
2018-04-05T01:58:17.666Z,10.20
2018-04-05T01:59:17.683Z,10.90
2018-04-05T02:00:17.702Z,10.70
2018-04-05T02:01:17.721Z,10.50
2018-04-05T02:02:17.742Z,9.90
2018-04-05T02:03:17.762Z,10.10
2018-04-05T02:04:17.779Z,10.90
2018-04-05T02:05:17.799Z,9.90
2018-04-05T02:06:17.819Z,9.90
2018-04-05T02:07:17.835Z,10.80
2018-04-05T02:08:17.855Z,11.10
2018-04-05T02:09:17.876Z,10.00
2018-04-05T02:10:17.892Z,10.80
2018-04-05T02:11:17.912Z,11.60
2018-04-05T02:12:17.931Z,10.30
2018-04-05T02:13:17.949Z,10.20
2018-04-05T02:14:17.972Z,9.70
2018-04-05T02:15:17.987Z,9.80
2018-04-05T02:16:18.007Z,10.90
2018-04-05T02:17:18.026Z,10.10
2018-04-05T02:18:18.045Z,10.40
2018-04-05T02:19:18.064Z,10.60
2018-04-05T02:20:18.086Z,8.80
2018-04-05T02:21:18.107Z,9.60
2018-04-05T02:22:18.123Z,9.50
2018-04-05T02:23:18.142Z,10.80
2018-04-05T02:24:18.159Z,9.80
2018-04-05T02:25:18.178Z,10.00
2018-04-05T02:26:18.199Z,10.10
2018-04-05T02:27:18.217Z,9.30
2018-04-05T02:28:18.235Z,9.20
2018-04-05T02:29:18.254Z,9.50
2018-04-05T02:30:18.275Z,9.50
2018-04-05T02:31:18.294Z,9.20
2018-04-05T02:32:18.312Z,10.20
2018-04-05T02:33:18.335Z,9.50
2018-04-05T02:34:18.352Z,9.80
2018-04-05T02:35:18.376Z,8.50
2018-04-05T02:36:18.387Z,9.20
2018-04-05T02:37:18.409Z,8.10
2018-04-05T02:38:18.428Z,9.30
2018-04-05T02:39:18.446Z,9.00
2018-04-05T02:40:18.466Z,9.20
2018-04-05T02:41:18.484Z,8.80
2018-04-05T02:42:18.504Z,8.60
2018-04-05T02:43:18.521Z,9.70
2018-04-05T02:44:18.541Z,8.80
2018-04-05T02:45:18.561Z,8.60
2018-04-05T02:46:18.580Z,9.60
2018-04-05T02:47:18.599Z,9.00
2018-04-05T02:48:18.618Z,9.20
2018-04-05T02:49:18.637Z,9.40
2018-04-05T02:50:18.656Z,9.20
2018-04-05T02:51:18.680Z,8.90
2018-04-05T02:52:18.694Z,8.50
2018-04-05T02:53:18.714Z,9.00
2018-04-05T02:54:18.733Z,9.60
2018-04-05T02:55:18.752Z,8.80
2018-04-05T02:56:18.776Z,9.90
2018-04-05T02:57:18.790Z,8.50
2018-04-05T02:58:18.810Z,8.10
2018-04-05T02:59:18.828Z,8.50
2018-04-05T03:00:18.847Z,8.80
2018-04-05T03:01:18.867Z,8.80
2018-04-05T03:02:18.886Z,8.40
2018-04-05T03:03:18.905Z,8.70
2018-04-05T03:04:18.925Z,7.90
2018-04-05T03:05:18.948Z,8.10
2018-04-05T03:06:18.964Z,8.40
2018-04-05T03:07:18.982Z,9.00
2018-04-05T03:08:19.001Z,8.20
2018-04-05T03:09:19.021Z,8.10
2018-04-05T03:10:19.040Z,8.80
2018-04-05T03:11:19.058Z,7.40
2018-04-05T03:12:19.077Z,7.60
2018-04-05T03:13:19.098Z,7.40
2018-04-05T03:14:19.118Z,6.90
2018-04-05T03:15:19.136Z,7.10
2018-04-05T03:16:19.155Z,6.90
2018-04-05T03:17:19.174Z,9.80
2018-04-05T03:18:19.193Z,6.00
2018-04-05T03:19:19.212Z,8.50
2018-04-05T03:20:19.231Z,6.80
2018-04-05T03:21:19.251Z,7.70
2018-04-05T03:22:19.274Z,8.50
2018-04-05T03:23:19.288Z,7.10
2018-04-05T03:24:19.309Z,6.90
2018-04-05T03:25:19.327Z,7.20
2018-04-05T03:26:19.347Z,6.40
2018-04-05T03:27:19.364Z,7.40
2018-04-05T03:28:19.384Z,8.80
2018-04-05T03:29:19.403Z,6.20
2018-04-05T03:30:19.432Z,6.10
2018-04-05T03:31:19.445Z,6.90
2018-04-05T03:32:19.460Z,6.50
2018-04-05T03:33:19.480Z,6.90
2018-04-05T03:34:19.501Z,8.00
2018-04-05T03:35:19.518Z,7.20
2018-04-05T03:36:19.538Z,8.60
2018-04-05T03:37:19.560Z,6.50
2018-04-05T03:38:19.577Z,7.10
2018-04-05T03:39:19.596Z,7.40
2018-04-05T03:40:19.614Z,7.40
2018-04-05T03:41:19.635Z,7.30
2018-04-05T03:42:19.653Z,7.70
2018-04-05T03:43:19.672Z,7.00
2018-04-05T03:44:19.692Z,7.00
2018-04-05T03:45:19.712Z,8.00
2018-04-05T03:46:19.730Z,7.40
2018-04-05T03:47:19.749Z,7.20
2018-04-05T03:48:19.768Z,7.10
2018-04-05T03:49:19.788Z,6.80
2018-04-05T03:50:19.807Z,6.70
2018-04-05T03:51:19.829Z,7.00
2018-04-05T03:52:19.845Z,7.20
2018-04-05T03:53:19.866Z,7.40
2018-04-05T03:54:19.938Z,8.20
2018-04-05T03:55:19.902Z,7.30
2018-04-05T03:56:19.925Z,9.60
2018-04-05T03:57:19.942Z,7.80
2018-04-05T03:58:19.961Z,8.40
2018-04-05T03:59:19.980Z,7.70
2018-04-05T04:00:19.999Z,7.90
2018-04-05T04:01:20.020Z,8.30
2018-04-05T04:02:20.041Z,8.20
2018-04-05T04:03:20.057Z,9.00
2018-04-05T04:04:20.075Z,8.60
2018-04-05T04:05:20.095Z,8.70
2018-04-05T04:06:20.114Z,9.40
2018-04-05T04:07:20.134Z,9.50
2018-04-05T04:08:20.153Z,10.40
2018-04-05T04:09:20.172Z,8.90
2018-04-05T04:10:20.191Z,9.90
2018-04-05T04:11:20.210Z,10.80
2018-04-05T04:12:20.229Z,9.60
2018-04-05T04:13:20.250Z,9.00
2018-04-05T04:14:20.268Z,9.60
2018-04-05T04:15:20.288Z,10.30
2018-04-05T04:16:20.306Z,10.40
2018-04-05T04:17:20.325Z,11.50
2018-04-05T04:18:20.344Z,10.60
2018-04-05T04:19:20.363Z,11.90
2018-04-05T04:20:20.382Z,10.10
2018-04-05T04:21:20.401Z,10.20
2018-04-05T04:22:20.421Z,11.20
2018-04-05T04:23:20.439Z,11.80
2018-04-05T04:24:20.459Z,11.40
2018-04-05T04:25:20.478Z,11.50
2018-04-05T04:26:20.498Z,12.20
2018-04-05T04:27:20.517Z,11.60
2018-04-05T04:28:20.535Z,11.40
2018-04-05T04:29:20.554Z,11.60
2018-04-05T04:30:20.574Z,11.40
2018-04-05T04:31:20.593Z,11.50
2018-04-05T04:32:20.611Z,11.60
2018-04-05T04:33:20.631Z,11.10
2018-04-05T04:34:20.650Z,11.70
2018-04-05T04:35:20.669Z,11.10
2018-04-05T04:36:20.688Z,11.00
2018-04-05T04:37:20.711Z,11.60
2018-04-05T04:38:20.727Z,10.80
2018-04-05T04:39:20.961Z,11.40
2018-04-05T04:40:20.765Z,10.80
2018-04-05T04:41:20.784Z,14.00
2018-04-05T04:42:20.804Z,11.30
2018-04-05T04:43:20.822Z,11.10
2018-04-05T04:44:20.841Z,12.80
2018-04-05T04:45:20.860Z,12.10
2018-04-05T04:46:20.881Z,10.80
2018-04-05T04:47:20.899Z,11.70
2018-04-05T04:48:20.917Z,10.80
2018-04-05T04:49:20.938Z,11.20
2018-04-05T04:50:20.956Z,10.70
2018-04-05T04:51:20.974Z,11.60
2018-04-05T04:52:20.994Z,11.50
2018-04-05T04:53:21.013Z,11.40
2018-04-05T04:54:21.033Z,12.20
2018-04-05T04:55:21.050Z,10.60
2018-04-05T04:56:21.072Z,11.00
2018-04-05T04:57:21.090Z,10.80
2018-04-05T04:58:21.108Z,10.90
2018-04-05T04:59:21.127Z,12.50
2018-04-05T05:00:21.146Z,12.00
2018-04-05T05:01:21.166Z,12.80
2018-04-05T05:02:21.186Z,11.60
2018-04-05T05:03:21.204Z,12.00
2018-04-05T05:04:21.226Z,11.40
2018-04-05T05:05:21.243Z,11.70
2018-04-05T05:06:21.262Z,11.50
2018-04-05T05:07:21.280Z,11.40
2018-04-05T05:08:21.300Z,12.00
2018-04-05T05:09:21.319Z,11.70
2018-04-05T05:10:21.340Z,13.50
2018-04-05T05:11:21.357Z,11.60
2018-04-05T05:12:21.382Z,12.20
2018-04-05T05:13:21.396Z,13.60
2018-04-05T05:14:21.415Z,11.30
2018-04-05T05:15:21.433Z,10.90
2018-04-05T05:16:21.453Z,11.20
2018-04-05T05:17:21.472Z,11.20
2018-04-05T05:18:21.493Z,13.00
2018-04-05T05:19:21.510Z,11.50
2018-04-05T05:20:21.537Z,12.50
2018-04-05T05:21:21.555Z,11.50
2018-04-05T05:22:21.568Z,11.20
2018-04-05T05:23:21.589Z,10.50
2018-04-05T05:24:21.609Z,11.60
2018-04-05T05:25:21.626Z,10.70
2018-04-05T05:26:21.646Z,11.00
2018-04-05T05:27:21.669Z,11.60
2018-04-05T05:28:21.702Z,13.60
2018-04-05T05:29:21.703Z,12.00
2018-04-05T05:30:21.723Z,12.60
2018-04-05T05:31:21.741Z,14.00
2018-04-05T05:32:21.761Z,12.10
2018-04-05T05:33:21.780Z,15.60
2018-04-05T05:34:21.800Z,13.40
2018-04-05T05:35:21.819Z,13.80
2018-04-05T05:36:21.838Z,16.30
2018-04-05T05:37:21.858Z,12.70
2018-04-05T05:38:21.877Z,10.90
2018-04-05T05:39:21.896Z,11.30
2018-04-05T05:40:21.915Z,13.50
2018-04-05T05:41:21.934Z,11.40
2018-04-05T05:42:22.054Z,13.10
2018-04-05T05:43:21.972Z,12.30
2018-04-05T05:44:21.992Z,13.00
2018-04-05T05:45:22.073Z,11.50
2018-04-05T05:46:22.029Z,13.30
2018-04-05T05:47:22.049Z,12.20
2018-04-05T05:48:22.075Z,10.70
2018-04-05T05:49:22.091Z,10.70
2018-04-05T05:50:22.107Z,10.90
2018-04-05T05:51:22.125Z,11.90
2018-04-05T05:52:22.146Z,11.50
2018-04-05T05:53:22.164Z,11.10
2018-04-05T05:54:22.185Z,10.20
2018-04-05T05:55:22.203Z,10.70
2018-04-05T05:56:22.222Z,10.30
2018-04-05T05:57:22.242Z,11.20
2018-04-05T05:58:22.263Z,12.50
2018-04-05T05:59:22.280Z,11.20
2018-04-05T06:00:22.300Z,11.70
2018-04-05T06:01:22.320Z,12.60
2018-04-05T06:02:22.339Z,13.00
2018-04-05T06:03:22.356Z,11.10
2018-04-05T06:04:22.375Z,10.70
2018-04-05T06:05:22.396Z,13.20
2018-04-05T06:06:22.416Z,11.00
2018-04-05T06:07:22.434Z,13.50
2018-04-05T06:08:22.454Z,11.20
2018-04-05T06:09:22.473Z,8.60
2018-04-05T06:10:22.493Z,11.70
2018-04-05T06:11:22.512Z,11.20
2018-04-05T06:12:22.532Z,8.80
2018-04-05T06:13:22.552Z,13.40
2018-04-05T06:14:22.621Z,9.60
2018-04-05T06:15:22.589Z,13.80
2018-04-05T06:16:22.611Z,11.80
2018-04-05T06:17:22.628Z,9.80
2018-04-05T06:18:22.647Z,12.00
2018-04-05T06:19:22.666Z,10.90
2018-04-05T06:20:22.686Z,11.50
2018-04-05T06:21:22.705Z,9.50
2018-04-05T06:22:22.725Z,7.80
2018-04-05T06:23:22.743Z,11.00
2018-04-05T06:24:22.761Z,9.90
2018-04-05T06:25:22.782Z,10.90
2018-04-05T06:26:22.802Z,11.10
2018-04-05T06:27:22.820Z,10.20
2018-04-05T06:28:22.840Z,8.40
2018-04-05T06:29:22.860Z,9.40
2018-04-05T06:30:22.879Z,9.30
2018-04-05T06:31:22.898Z,7.50
2018-04-05T06:32:22.919Z,7.50
2018-04-05T06:33:22.936Z,10.20
2018-04-05T06:34:22.956Z,8.90
2018-04-05T06:35:22.975Z,7.30
2018-04-05T06:36:23.042Z,8.60
2018-04-05T06:37:23.014Z,7.40
2018-04-05T06:38:23.034Z,8.20
2018-04-05T06:39:23.053Z,8.30
2018-04-05T06:40:23.073Z,9.20
2018-04-05T06:41:23.093Z,9.50
2018-04-05T06:42:23.111Z,9.60
2018-04-05T06:43:23.131Z,9.20
2018-04-05T06:44:23.151Z,8.10
2018-04-05T06:45:23.171Z,7.50
2018-04-05T06:46:23.190Z,10.50
2018-04-05T06:47:23.209Z,9.40
2018-04-05T06:48:23.228Z,8.00
2018-04-05T06:49:23.248Z,9.00
2018-04-05T06:50:23.267Z,8.60
2018-04-05T06:51:23.287Z,11.10
2018-04-05T06:52:23.306Z,9.30
2018-04-05T06:53:23.335Z,12.30
2018-04-05T06:54:23.344Z,9.20
2018-04-05T06:55:23.368Z,9.20
2018-04-05T06:56:23.384Z,10.80
2018-04-05T06:57:23.459Z,12.80
2018-04-05T06:58:23.423Z,11.70
2018-04-05T06:59:23.447Z,10.30
2018-04-05T07:00:23.480Z,9.30
2018-04-05T07:01:23.482Z,6.90
2018-04-05T07:02:23.500Z,5.60
2018-04-05T07:03:23.520Z,3.80
2018-04-05T07:04:23.539Z,6.50
2018-04-05T07:05:23.558Z,5.60
2018-04-05T07:06:23.577Z,9.80
2018-04-05T07:07:23.595Z,8.50
2018-04-05T07:08:23.614Z,6.40
2018-04-05T07:09:23.633Z,8.50
2018-04-05T07:10:23.652Z,7.50
2018-04-05T07:11:23.727Z,8.10
2018-04-05T07:12:23.691Z,9.20
2018-04-05T07:13:23.708Z,8.70
2018-04-05T07:14:23.728Z,7.30
2018-04-05T07:15:23.746Z,9.80
2018-04-05T07:16:23.789Z,6.40
2018-04-05T07:17:23.783Z,6.00
2018-04-05T07:18:23.803Z,7.20
2018-04-05T07:19:23.820Z,9.00
2018-04-05T07:20:23.839Z,6.00
2018-04-05T07:21:23.858Z,7.90
2018-04-05T07:22:23.877Z,7.70
2018-04-05T07:23:23.895Z,11.40
2018-04-05T07:24:23.914Z,7.90
2018-04-05T07:25:23.934Z,7.20
2018-04-05T07:26:23.952Z,6.70
2018-04-05T07:27:23.971Z,8.30
2018-04-05T07:28:23.988Z,8.70
2018-04-05T07:29:24.054Z,8.20
2018-04-05T07:30:24.026Z,8.80
2018-04-05T07:31:24.044Z,8.10
2018-04-05T07:32:24.063Z,10.80
2018-04-05T07:33:24.082Z,8.00
2018-04-05T07:34:24.101Z,9.70
2018-04-05T07:35:24.174Z,9.70
2018-04-05T07:36:24.137Z,10.50
2018-04-05T07:37:24.155Z,10.30
2018-04-05T07:38:24.175Z,11.90
2018-04-05T07:39:24.194Z,10.40
2018-04-05T07:40:24.212Z,9.90
2018-04-05T07:41:24.232Z,10.70
2018-04-05T07:42:24.249Z,12.00
2018-04-05T07:43:24.278Z,13.10
2018-04-05T07:44:24.286Z,13.40
2018-04-05T07:45:24.304Z,11.00
2018-04-05T07:46:24.323Z,11.20
2018-04-05T07:47:24.341Z,12.20
2018-04-05T07:48:24.409Z,12.70
2018-04-05T07:49:24.378Z,12.30
2018-04-05T07:50:24.497Z,12.20
2018-04-05T07:51:24.414Z,10.80
2018-04-05T07:52:24.432Z,12.30
2018-04-05T07:53:24.451Z,12.90
2018-04-05T07:54:24.470Z,13.50
2018-04-05T07:55:24.487Z,13.10
2018-04-05T07:56:24.506Z,12.00
2018-04-05T07:57:24.526Z,14.00
2018-04-05T07:58:24.548Z,11.60
2018-04-05T07:59:24.562Z,13.00
2018-04-05T08:00:24.584Z,12.20
2018-04-05T08:01:24.599Z,12.90
2018-04-05T08:02:24.640Z,13.90
2018-04-05T08:03:24.635Z,12.90
2018-04-05T08:04:24.701Z,13.00
2018-04-05T08:05:24.677Z,13.10
2018-04-05T08:06:24.691Z,12.70
2018-04-05T08:07:24.709Z,15.50
2018-04-05T08:08:24.729Z,13.90
2018-04-05T08:09:24.747Z,15.30
2018-04-05T08:10:24.766Z,16.70
2018-04-05T08:11:24.784Z,17.00
2018-04-05T08:12:24.802Z,13.80
2018-04-05T08:13:24.822Z,17.90
2018-04-05T08:14:24.841Z,15.30
2018-04-05T08:15:24.858Z,14.20
2018-04-05T08:16:24.877Z,13.60
2018-04-05T08:17:24.897Z,13.80
2018-04-05T08:18:24.918Z,13.60
2018-04-05T08:19:24.933Z,12.80
2018-04-05T08:20:24.959Z,13.80
2018-04-05T08:21:24.974Z,14.30
2018-04-05T08:22:24.990Z,13.60
2018-04-05T08:23:25.007Z,14.70
2018-04-05T08:24:25.081Z,15.60
2018-04-05T08:25:25.045Z,14.70
2018-04-05T08:26:25.069Z,13.70
2018-04-05T08:27:25.082Z,17.00
2018-04-05T08:28:25.102Z,14.90
2018-04-05T08:29:25.119Z,17.00
2018-04-05T08:30:25.139Z,16.00
2018-04-05T08:31:25.157Z,14.60
2018-04-05T08:32:25.176Z,14.50
2018-04-05T08:33:25.200Z,13.30
2018-04-05T08:34:25.214Z,13.30
2018-04-05T08:35:25.232Z,12.00
2018-04-05T08:36:25.251Z,15.60
2018-04-05T08:37:25.313Z,13.50
2018-04-05T08:38:25.289Z,14.40
2018-04-05T08:39:25.307Z,18.50
2018-04-05T08:40:25.326Z,9.50
2018-04-05T08:41:25.345Z,11.20
2018-04-05T08:42:25.365Z,11.90
2018-04-05T08:43:25.382Z,11.50
2018-04-05T08:44:25.401Z,10.60
2018-04-05T08:45:25.420Z,11.10
2018-04-05T08:46:25.440Z,12.20
2018-04-05T08:47:25.458Z,9.90
2018-04-05T08:48:25.476Z,13.00
2018-04-05T08:49:25.520Z,11.70
2018-04-05T08:50:25.515Z,7.40
2018-04-05T08:51:25.534Z,9.70
2018-04-05T08:52:25.552Z,10.50
2018-04-05T08:53:25.573Z,7.60
2018-04-05T08:54:25.596Z,11.30
2018-04-05T08:55:25.609Z,8.40
2018-04-05T08:56:25.628Z,11.90
2018-04-05T08:57:25.649Z,7.60
2018-04-05T08:58:25.666Z,7.50
2018-04-05T08:59:25.685Z,6.90
2018-04-05T09:00:25.704Z,9.40
2018-04-05T09:01:25.724Z,7.60
2018-04-05T09:02:25.742Z,8.10
2018-04-05T09:03:25.761Z,7.60
2018-04-05T09:04:25.780Z,8.50
2018-04-05T09:05:25.800Z,8.60
2018-04-05T09:06:25.819Z,8.90
2018-04-05T09:07:25.837Z,7.70
2018-04-05T09:08:25.856Z,9.10
2018-04-05T09:09:25.973Z,9.50
2018-04-05T09:10:25.894Z,9.00
2018-04-05T09:11:25.913Z,8.70
2018-04-05T09:12:25.933Z,10.60
2018-04-05T09:13:25.952Z,11.30
2018-04-05T09:14:25.972Z,10.10
2018-04-05T09:15:25.990Z,9.30
2018-04-05T09:16:26.054Z,12.70
2018-04-05T09:17:26.029Z,10.10
2018-04-05T09:18:26.047Z,13.10
2018-04-05T09:19:26.066Z,14.20
2018-04-05T09:20:26.086Z,11.80
2018-04-05T09:21:26.104Z,10.90
2018-04-05T09:22:26.124Z,11.10
2018-04-05T09:23:26.142Z,9.00
2018-04-05T09:24:26.163Z,12.40
2018-04-05T09:25:26.181Z,10.80
2018-04-05T09:26:26.202Z,10.70
2018-04-05T09:27:26.221Z,9.50
2018-04-05T09:28:26.240Z,10.40
2018-04-05T09:29:26.259Z,10.60
2018-04-05T09:30:26.279Z,9.30
2018-04-05T09:31:26.298Z,10.90
2018-04-05T09:32:26.317Z,9.30
2018-04-05T09:33:26.343Z,9.70
2018-04-05T09:34:26.357Z,9.80
2018-04-05T09:35:26.376Z,10.50
2018-04-05T09:36:26.395Z,10.90
2018-04-05T09:37:26.415Z,10.30
2018-04-05T09:38:26.435Z,13.00
2018-04-05T09:39:26.463Z,9.60
2018-04-05T09:40:26.480Z,10.10
2018-04-05T09:41:26.493Z,10.50
2018-04-05T09:42:26.513Z,11.00
2018-04-05T09:43:26.532Z,10.70
2018-04-05T09:44:26.553Z,9.20
2018-04-05T09:45:26.572Z,9.90
2018-04-05T09:46:26.592Z,8.70
2018-04-05T09:47:26.611Z,10.80
2018-04-05T09:48:26.632Z,13.70
2018-04-05T09:49:26.654Z,9.80
2018-04-05T09:50:26.673Z,13.00
2018-04-05T09:51:26.689Z,11.30
2018-04-05T09:52:26.714Z,14.00
2018-04-05T09:53:26.730Z,11.30
2018-04-05T09:54:26.749Z,10.60
2018-04-05T09:55:26.767Z,12.10
2018-04-05T09:56:26.789Z,12.00
2018-04-05T09:57:26.807Z,11.10
2018-04-05T09:58:26.918Z,9.60
2018-04-05T09:59:26.844Z,11.90
2018-04-05T10:00:26.911Z,7.90
2018-04-05T10:01:26.884Z,12.80
2018-04-05T10:02:26.902Z,7.40
2018-04-05T10:03:26.921Z,12.20
2018-04-05T10:04:26.945Z,9.90
2018-04-05T10:05:26.959Z,10.60
2018-04-05T10:06:26.979Z,7.20
2018-04-05T10:07:26.998Z,7.40
2018-04-05T10:08:27.017Z,6.20
2018-04-05T10:09:27.036Z,4.40
2018-04-05T10:10:27.056Z,8.80
2018-04-05T10:11:27.179Z,6.90
2018-04-05T10:12:27.093Z,4.50
2018-04-05T10:13:27.113Z,5.10
2018-04-05T10:14:27.132Z,7.10
2018-04-05T10:15:27.172Z,5.70
2018-04-05T10:16:27.170Z,5.60
2018-04-05T10:17:27.193Z,5.70
2018-04-05T10:18:27.209Z,5.70
2018-04-05T10:19:27.227Z,4.50
2018-04-05T10:20:27.247Z,4.70
2018-04-05T10:21:27.266Z,5.40
2018-04-05T10:22:27.287Z,10.00
2018-04-05T10:23:27.304Z,14.00
2018-04-05T10:24:27.323Z,10.60
2018-04-05T10:25:27.342Z,10.40
2018-04-05T10:26:27.362Z,2.90
2018-04-05T10:27:27.381Z,4.10
2018-04-05T10:28:27.403Z,7.00
2018-04-05T10:29:27.419Z,5.70
2018-04-05T10:30:27.439Z,5.10
2018-04-05T10:31:27.457Z,9.10
2018-04-05T10:32:27.477Z,4.60
2018-04-05T10:33:27.496Z,3.50
2018-04-05T10:34:27.617Z,5.40
2018-04-05T10:35:27.534Z,8.20
2018-04-05T10:36:27.554Z,5.50
2018-04-05T10:37:27.572Z,6.10
2018-04-05T10:38:27.594Z,6.50
2018-04-05T10:39:27.612Z,3.90
2018-04-05T10:40:27.632Z,6.80
2018-04-05T10:41:27.651Z,5.10
2018-04-05T10:42:27.670Z,5.70
2018-04-05T10:43:27.689Z,4.90
2018-04-05T10:44:27.709Z,6.60
2018-04-05T10:45:27.729Z,6.00
2018-04-05T10:46:27.748Z,10.00
2018-04-05T10:47:27.767Z,5.50
2018-04-05T10:48:27.787Z,7.60
2018-04-05T10:49:27.806Z,4.50
2018-04-05T10:50:27.826Z,5.40
2018-04-05T10:51:27.845Z,3.90
2018-04-05T10:52:27.866Z,5.00
2018-04-05T10:53:27.884Z,5.20
2018-04-05T10:54:28.157Z,4.70
2018-04-05T10:55:27.925Z,21.80
2018-04-05T10:56:27.949Z,6.20
2018-04-05T10:57:27.966Z,8.10
2018-04-05T10:58:27.983Z,6.60
2018-04-05T10:59:28.003Z,6.10
2018-04-05T11:00:28.025Z,3.60
2018-04-05T11:01:28.042Z,3.30
2018-04-05T11:02:28.061Z,2.50
2018-04-05T11:03:28.081Z,5.60
2018-04-05T11:04:28.101Z,5.10
2018-04-05T11:05:28.120Z,4.50
2018-04-05T11:06:28.140Z,5.10
2018-04-05T11:07:28.159Z,9.20
2018-04-05T11:08:28.178Z,3.50
2018-04-05T11:09:28.198Z,5.40
2018-04-05T11:10:28.217Z,4.00
2018-04-05T11:11:28.238Z,6.20
2018-04-05T11:12:28.260Z,8.10
2018-04-05T11:13:28.275Z,5.00
2018-04-05T11:14:28.295Z,2.50
2018-04-05T11:15:28.314Z,4.70
2018-04-05T11:16:28.333Z,4.50
2018-04-05T11:17:28.353Z,4.40
2018-04-05T11:18:28.373Z,5.60
2018-04-05T11:19:28.390Z,5.60
2018-04-05T11:20:28.417Z,4.90
2018-04-05T11:21:28.429Z,5.00
2018-04-05T11:22:28.448Z,4.30
2018-04-05T11:23:28.471Z,7.00
2018-04-05T11:24:28.486Z,4.40
2018-04-05T11:25:28.506Z,5.40
2018-04-05T11:26:28.525Z,5.60
2018-04-05T11:27:28.543Z,7.50
2018-04-05T11:28:28.566Z,6.30
2018-04-05T11:29:28.584Z,4.20
2018-04-05T11:30:28.602Z,3.80
2018-04-05T11:31:28.621Z,4.80
2018-04-05T11:32:28.642Z,5.40
2018-04-05T11:33:28.662Z,6.70
2018-04-05T11:34:28.678Z,7.30
2018-04-05T11:35:28.696Z,9.60
2018-04-05T11:36:28.718Z,6.70
2018-04-05T11:37:28.736Z,4.90
2018-04-05T11:38:28.755Z,8.80
2018-04-05T11:39:28.772Z,3.40
2018-04-05T11:40:28.793Z,4.00
2018-04-05T11:41:28.811Z,3.10
2018-04-05T11:42:28.834Z,4.10
2018-04-05T11:43:28.850Z,1.80
2018-04-05T11:44:28.870Z,5.70
2018-04-05T11:45:28.889Z,3.80
2018-04-05T11:46:28.911Z,6.70
2018-04-05T11:47:28.928Z,3.10
2018-04-05T11:48:29.197Z,3.70
2018-04-05T11:49:28.964Z,2.60
2018-04-05T11:50:28.983Z,6.50
2018-04-05T11:51:29.008Z,2.60
2018-04-05T11:52:29.022Z,1.80
2018-04-05T11:53:29.040Z,2.90
2018-04-05T11:54:29.059Z,3.80
2018-04-05T11:55:29.077Z,4.90
2018-04-05T11:56:29.097Z,4.00
2018-04-05T11:57:29.115Z,4.40
2018-04-05T11:58:29.138Z,3.40
2018-04-05T11:59:29.153Z,2.70
2018-04-05T12:00:29.171Z,2.90
2018-04-05T12:01:29.190Z,4.10
2018-04-05T12:02:29.211Z,2.90
2018-04-05T12:03:29.227Z,3.80
2018-04-05T12:04:29.246Z,4.30
2018-04-05T12:05:29.264Z,6.90
2018-04-05T12:06:29.284Z,5.70
2018-04-05T12:07:29.300Z,3.20
2018-04-05T12:08:29.319Z,2.60
2018-04-05T12:09:29.340Z,2.30
2018-04-05T12:10:29.356Z,3.90
2018-04-05T12:11:29.373Z,3.50
2018-04-05T12:12:29.392Z,4.10
2018-04-05T12:13:29.410Z,3.40
2018-04-05T12:14:29.432Z,5.10
2018-04-05T12:15:29.446Z,5.00
2018-04-05T12:16:29.465Z,4.30
2018-04-05T12:17:29.483Z,4.40
2018-04-05T12:18:29.502Z,2.10
2018-04-05T12:19:29.519Z,3.30
2018-04-05T12:20:29.541Z,2.20
2018-04-05T12:21:29.556Z,1.90
2018-04-05T12:22:29.574Z,3.40
2018-04-05T12:23:29.592Z,2.20
2018-04-05T12:24:29.624Z,4.80
2018-04-05T12:25:29.629Z,2.90
2018-04-05T12:26:29.647Z,1.60
2018-04-05T12:27:29.665Z,2.10
2018-04-05T12:28:29.683Z,3.70
2018-04-05T12:29:29.702Z,3.00
2018-04-05T12:30:29.720Z,2.30
2018-04-05T12:31:29.737Z,4.00
2018-04-05T12:32:29.756Z,2.80
2018-04-05T12:33:29.773Z,4.20
2018-04-05T12:34:29.791Z,2.70
2018-04-05T12:35:29.808Z,2.70
2018-04-05T12:36:29.827Z,3.10
2018-04-05T12:37:29.845Z,5.30
2018-04-05T12:38:29.864Z,2.50
2018-04-05T12:39:29.879Z,2.70
2018-04-05T12:40:29.997Z,3.00
2018-04-05T12:41:29.915Z,4.10
2018-04-05T12:42:29.934Z,3.10
2018-04-05T12:43:29.953Z,3.90
2018-04-05T12:44:29.969Z,3.60
2018-04-05T12:45:29.985Z,2.40
2018-04-05T12:46:30.004Z,2.90
2018-04-05T12:47:30.021Z,2.30
2018-04-05T12:48:30.039Z,3.20
2018-04-05T12:49:30.055Z,6.50
2018-04-05T12:50:30.076Z,1.90
2018-04-05T12:51:30.090Z,1.90
2018-04-05T12:52:30.108Z,3.30
2018-04-05T12:53:30.127Z,3.30
2018-04-05T12:54:30.144Z,2.10
2018-04-05T12:55:30.164Z,2.40
2018-04-05T12:56:30.179Z,3.50
2018-04-05T12:57:30.197Z,2.30
2018-04-05T12:58:30.215Z,3.40
2018-04-05T12:59:30.233Z,3.20
2018-04-05T13:00:30.249Z,4.00
2018-04-05T13:01:30.267Z,3.60
2018-04-05T13:02:30.284Z,2.70
2018-04-05T13:03:30.301Z,2.60
2018-04-05T13:04:30.318Z,2.50
2018-04-05T13:05:30.337Z,2.10
2018-04-05T13:06:30.355Z,2.90
2018-04-05T13:07:30.370Z,2.30
2018-04-05T13:08:30.392Z,3.80